createdAt,value
2022-08-03T00:01:52.085Z,98601.50
2022-08-03T00:06:04.196Z,98605.53
2022-08-03T00:10:08.006Z,98605.06
2022-08-03T00:14:10.262Z,98598.88
2022-08-03T00:18:12.505Z,98593.97
2022-08-03T00:22:14.839Z,98600.00
2022-08-03T00:26:48.480Z,98592.66
2022-08-03T00:30:50.594Z,98588.69
2022-08-03T00:34:57.732Z,98595.94
2022-08-03T00:39:02.803Z,98600.69
2022-08-03T00:43:11.584Z,98596.75
2022-08-03T00:47:16.834Z,98590.38
2022-08-03T00:51:21.094Z,98582.59
2022-08-03T00:55:23.399Z,98591.97
2022-08-03T00:59:25.432Z,98589.78
2022-08-03T01:03:29.078Z,98588.50
2022-08-03T01:08:16.630Z,98585.22
2022-08-03T01:12:35.101Z,98581.41
2022-08-03T01:16:59.476Z,98581.91
2022-08-03T01:21:07.763Z,98582.94
2022-08-03T01:26:04.007Z,98588.22
2022-08-03T01:30:12.393Z,98584.56
2022-08-03T01:34:17.518Z,98578.22
2022-08-03T01:39:06.501Z,98585.44
2022-08-03T01:43:11.886Z,98593.63
2022-08-03T01:47:16.394Z,98592.97
2022-08-03T01:51:20.983Z,98587.88
2022-08-03T01:55:25.208Z,98582.44
2022-08-03T01:59:28.159Z,98581.03
2022-08-03T02:04:00.732Z,98586.56
2022-08-03T02:08:05.451Z,98581.69
2022-08-03T02:12:22.510Z,98574.69
2022-08-03T02:16:27.871Z,98577.84
2022-08-03T02:20:33.345Z,98578.91
2022-08-03T02:24:51.030Z,98578.91
2022-08-03T02:29:02.118Z,98573.56
2022-08-03T02:33:07.849Z,98572.00
2022-08-03T02:37:13.469Z,98577.91
2022-08-03T02:41:21.035Z,98573.94
2022-08-03T02:45:25.349Z,98568.66
2022-08-03T02:49:41.441Z,98581.06
2022-08-03T02:53:51.749Z,98579.47
2022-08-03T02:58:03.506Z,98576.63
2022-08-03T03:02:07.062Z,98579.78
2022-08-03T03:06:12.998Z,98572.16
2022-08-03T03:10:17.770Z,98582.34
2022-08-03T03:14:33.757Z,98578.69
2022-08-03T03:18:38.408Z,98585.72
2022-08-03T03:22:47.264Z,98581.72
2022-08-03T03:26:49.989Z,98573.28
2022-08-03T03:30:53.400Z,98563.44
2022-08-03T03:34:59.151Z,98570.09
2022-08-03T03:39:15.801Z,98567.22
2022-08-03T03:43:19.058Z,98568.50
2022-08-03T03:47:32.379Z,98559.28
2022-08-03T03:52:17.321Z,98571.50
2022-08-03T03:56:20.057Z,98560.06
2022-08-03T04:00:23.642Z,98569.78
2022-08-03T04:04:50.761Z,98568.84
2022-08-03T04:09:11.578Z,98571.22
2022-08-03T04:13:16.044Z,98585.34
2022-08-03T04:17:20.088Z,98586.50
2022-08-03T04:21:25.043Z,98583.94
2022-08-03T04:25:31.197Z,98583.28
2022-08-03T04:29:36.240Z,98580.59
2022-08-03T04:33:44.754Z,98583.63
2022-08-03T04:37:50.747Z,98586.97
2022-08-03T04:42:02.219Z,98593.31
2022-08-03T04:46:11.275Z,98591.06
2022-08-03T04:50:21.430Z,98596.44
2022-08-03T04:54:50.117Z,98605.38
2022-08-03T04:59:14.695Z,98596.44
2022-08-03T05:03:24.040Z,98606.38
2022-08-03T05:07:35.814Z,98607.75
2022-08-03T05:11:47.789Z,98608.81
2022-08-03T05:20:34.795Z,98621.22
2022-08-03T05:24:37.269Z,98616.56
2022-08-03T05:28:39.986Z,98617.22
2022-08-03T05:32:53.500Z,98625.94
2022-08-03T05:36:56.759Z,98621.09
2022-08-03T05:41:22.813Z,98614.41
2022-08-03T05:45:24.284Z,98617.44
2022-08-03T05:49:30.015Z,98616.59
2022-08-03T05:53:35.544Z,98614.84
2022-08-03T05:57:38.435Z,98619.28
2022-08-03T06:01:40.486Z,98622.47
2022-08-03T06:05:54.981Z,98613.97
2022-08-03T06:10:36.561Z,98611.03
2022-08-03T06:14:25.459Z,98608.00
2022-08-03T06:18:27.681Z,98622.13
2022-08-03T06:22:29.860Z,98615.63
2022-08-03T06:26:32.995Z,98615.59
2022-08-03T06:30:36.254Z,98614.94
2022-08-03T06:34:41.430Z,98621.09
2022-08-03T06:38:43.586Z,98614.63
2022-08-03T06:42:46.318Z,98617.56
2022-08-03T06:46:48.469Z,98624.84
2022-08-03T06:50:50.738Z,98613.84
2022-08-03T06:54:52.985Z,98613.19
2022-08-03T06:58:55.914Z,98620.03
2022-08-03T07:02:58.565Z,98621.94
2022-08-03T07:07:00.865Z,98616.56
2022-08-03T07:11:03.015Z,98620.53
2022-08-03T07:15:07.259Z,98612.25
2022-08-03T07:19:09.338Z,98610.34
2022-08-03T07:23:16.106Z,98612.31
2022-08-03T07:27:21.445Z,98617.09
2022-08-03T07:31:24.026Z,98614.25
2022-08-03T07:35:26.925Z,98616.53
2022-08-03T07:39:29.144Z,98610.72
2022-08-03T07:43:32.184Z,98607.31
2022-08-03T07:47:36.099Z,98608.41
2022-08-03T07:51:38.495Z,98616.38
2022-08-03T08:00:25.584Z,98618.91
2022-08-03T08:04:36.955Z,98612.34
2022-08-03T08:08:40.126Z,98625.75
2022-08-03T08:12:42.372Z,98623.88
2022-08-03T08:16:44.418Z,98627.22
2022-08-03T08:20:47.015Z,98621.03
2022-08-03T08:24:49.287Z,98614.84
2022-08-03T08:28:53.243Z,98617.38
2022-08-03T08:32:56.030Z,98622.94
2022-08-03T08:36:58.997Z,98621.09
2022-08-03T08:41:01.402Z,98616.84
2022-08-03T08:45:06.644Z,98620.84
2022-08-03T08:49:10.769Z,98622.94
2022-08-03T08:53:18.285Z,98620.38
2022-08-03T08:57:41.913Z,98624.09
2022-08-03T09:01:48.263Z,98622.22
2022-08-03T09:05:56.122Z,98616.25
2022-08-03T09:10:12.312Z,98610.53
2022-08-03T09:14:36.846Z,98618.38
2022-08-03T09:18:42.680Z,98608.25
2022-08-03T09:22:55.812Z,98619.31
2022-08-03T09:26:58.105Z,98607.97
2022-08-03T09:31:00.709Z,98606.84
2022-08-03T09:35:04.755Z,98601.78
2022-08-03T09:39:13.386Z,98596.38
2022-08-03T09:43:21.961Z,98588.91
2022-08-03T09:52:37.985Z,98582.28
2022-08-03T09:56:46.851Z,98582.72
2022-08-03T10:00:57.665Z,98585.84
2022-08-03T10:05:00.514Z,98585.84
2022-08-03T10:09:16.866Z,98585.09
2022-08-03T10:13:19.779Z,98589.38
2022-08-03T10:17:23.075Z,98580.34
2022-08-03T10:21:25.064Z,98565.41
2022-08-03T10:25:33.066Z,98569.31
2022-08-03T10:29:42.883Z,98566.56
2022-08-03T10:34:33.387Z,98560.59
2022-08-03T10:40:07.387Z,98556.28
2022-08-03T10:44:14.540Z,98550.72
2022-08-03T10:48:22.669Z,98551.09
2022-08-03T10:52:32.882Z,98543.16
2022-08-03T10:57:04.880Z,98541.56
2022-08-03T11:01:20.054Z,98544.19
2022-08-03T11:05:29.931Z,98535.50
2022-08-03T11:09:48.621Z,98525.31
2022-08-03T11:14:08.070Z,98521.69
2022-08-03T11:19:28.263Z,98515.28
2022-08-03T11:24:03.264Z,98519.09
2022-08-03T11:28:36.004Z,98518.19
2022-08-03T11:32:46.708Z,98511.38
2022-08-03T11:38:03.387Z,98502.34
2022-08-03T11:42:23.334Z,98515.22
2022-08-03T11:46:54.869Z,98501.88
2022-08-03T11:51:20.530Z,98490.31
2022-08-03T11:55:23.753Z,98486.13
2022-08-03T11:59:58.348Z,98482.59
2022-08-03T12:04:06.736Z,98477.69
2022-08-03T12:08:13.560Z,98482.59
2022-08-03T12:12:16.613Z,98470.09
2022-08-03T12:16:24.107Z,98471.66
2022-08-03T12:20:31.515Z,98467.75
2022-08-03T12:24:42.489Z,98463.75
2022-08-03T12:28:49.870Z,98467.94
2022-08-03T12:32:52.376Z,98458.28
2022-08-03T12:36:56.833Z,98448.78
2022-08-03T12:41:01.491Z,98464.69
2022-08-03T12:45:21.977Z,98451.47
2022-08-03T12:49:28.301Z,98451.25
2022-08-03T12:53:53.034Z,98450.28
2022-08-03T12:57:55.396Z,98441.06
2022-08-03T13:01:58.092Z,98444.03
2022-08-03T13:12:17.286Z,98423.47
2022-08-03T13:16:19.731Z,98426.44
2022-08-03T13:20:23.030Z,98414.34
2022-08-03T13:24:30.484Z,98420.63
2022-08-03T13:28:33.618Z,98424.59
2022-08-03T13:32:36.161Z,98413.47
2022-08-03T13:37:06.485Z,98402.41
2022-08-03T13:41:02.218Z,98396.06
2022-08-03T13:45:28.120Z,98403.56
2022-08-03T13:49:30.545Z,98405.66
2022-08-03T13:53:35.815Z,98394.16
2022-08-03T13:58:05.802Z,98392.59
2022-08-03T14:02:04.972Z,98381.03
2022-08-03T14:06:07.228Z,98386.50
2022-08-03T14:10:09.739Z,98389.44
2022-08-03T14:14:12.633Z,98379.88
2022-08-03T14:29:59.893Z,98360.25
2022-08-03T14:34:02.634Z,98358.97
2022-08-03T14:39:19.489Z,98364.78
2022-08-03T14:44:24.768Z,98362.72
2022-08-03T14:50:24.994Z,98354.78
2022-08-03T14:53:46.960Z,98354.19
2022-08-03T14:57:50.773Z,98349.53
2022-08-03T15:02:04.848Z,98347.66
2022-08-03T15:06:09.896Z,98342.19
2022-08-03T15:14:33.350Z,98325.16
2022-08-03T15:18:40.202Z,98335.91
2022-08-03T15:22:42.765Z,98319.50
2022-08-03T15:26:46.030Z,98328.75
2022-08-03T15:30:48.339Z,98329.66
2022-08-03T15:34:52.252Z,98329.31
2022-08-03T15:38:56.571Z,98326.22
2022-08-03T15:43:10.294Z,98324.06
2022-08-03T15:47:13.884Z,98324.59
2022-08-03T15:51:17.455Z,98325.19
2022-08-03T15:55:19.893Z,98312.69
2022-08-03T15:59:22.557Z,98320.81
2022-08-03T16:03:25.869Z,98322.81
2022-08-03T16:08:02.688Z,98320.47
2022-08-03T16:12:05.769Z,98315.03
2022-08-03T16:16:25.600Z,98315.38
2022-08-03T16:20:33.787Z,98325.44
2022-08-03T16:24:43.241Z,98316.44
2022-08-03T16:28:45.806Z,98321.03
2022-08-03T16:32:48.015Z,98317.28
2022-08-03T16:36:52.122Z,98310.53
2022-08-03T16:41:09.010Z,98315.69
2022-08-03T16:45:11.698Z,98312.97
2022-08-03T16:49:56.102Z,98314.34
2022-08-03T16:54:05.787Z,98316.16
2022-08-03T16:58:42.583Z,98330.41
2022-08-03T17:03:12.770Z,98322.25
2022-08-03T17:07:25.120Z,98319.00
2022-08-03T17:11:46.906Z,98315.56
2022-08-03T17:21:06.056Z,98320.22
2022-08-03T17:25:10.959Z,98327.34
2022-08-03T17:29:35.659Z,98327.31
2022-08-03T17:33:43.733Z,98332.56
2022-08-03T17:38:03.782Z,98336.94
2022-08-03T17:42:30.658Z,98340.19
2022-08-03T17:46:35.746Z,98351.41
2022-08-03T17:50:55.665Z,98349.13
2022-08-03T17:56:36.130Z,98360.69
2022-08-03T18:00:51.838Z,98364.13
2022-08-03T18:05:15.950Z,98361.41
2022-08-03T18:10:06.706Z,98366.34
2022-08-03T18:13:57.851Z,98366.41
2022-08-03T18:18:10.399Z,98367.50
2022-08-03T18:22:13.885Z,98372.66
2022-08-03T18:26:16.661Z,98372.69
2022-08-03T18:30:19.007Z,98378.00
2022-08-03T18:34:32.839Z,98376.03
2022-08-03T18:39:02.361Z,98382.19
2022-08-03T18:43:08.932Z,98384.22
2022-08-03T18:47:23.303Z,98379.53
2022-08-03T18:51:42.926Z,98395.94
2022-08-03T18:56:02.237Z,98393.53
2022-08-03T19:00:14.216Z,98404.41
2022-08-03T19:04:34.133Z,98404.31
2022-08-03T19:13:30.979Z,98410.34
2022-08-03T19:17:50.020Z,98416.47
2022-08-03T19:21:57.172Z,98434.38
2022-08-03T19:26:00.634Z,98434.31
2022-08-03T19:30:08.233Z,98439.06
2022-08-03T19:34:21.189Z,98446.41
2022-08-03T19:38:28.387Z,98449.13
2022-08-03T19:42:40.099Z,98456.78
2022-08-03T19:46:55.227Z,98455.84
2022-08-03T19:51:02.937Z,98452.63
2022-08-03T19:55:16.126Z,98455.31
2022-08-03T19:59:49.881Z,98459.53
2022-08-03T20:03:53.682Z,98466.50
2022-08-03T20:08:01.420Z,98461.47
2022-08-03T20:12:04.512Z,98460.72
2022-08-03T20:16:06.978Z,98466.16
2022-08-03T20:20:11.576Z,98458.50
2022-08-03T20:24:23.728Z,98459.56
2022-08-03T20:28:49.801Z,98464.22
2022-08-03T20:32:53.048Z,98457.44
2022-08-03T20:36:55.330Z,98468.38
2022-08-03T20:40:59.189Z,98458.03
2022-08-03T20:45:06.876Z,98460.03
2022-08-03T20:49:24.158Z,98462.00
2022-08-03T20:53:57.002Z,98457.00
2022-08-03T20:57:54.562Z,98462.44
2022-08-03T21:01:57.161Z,98466.84
2022-08-03T21:06:06.997Z,98469.47
2022-08-03T21:10:13.128Z,98462.78
2022-08-03T21:14:23.260Z,98471.47
2022-08-03T21:18:27.116Z,98471.09
2022-08-03T21:22:33.626Z,98477.41
2022-08-03T21:26:38.970Z,98481.38
2022-08-03T21:30:41.042Z,98480.09
2022-08-03T21:34:46.045Z,98486.56
2022-08-03T21:38:56.674Z,98488.53
2022-08-03T21:42:59.231Z,98500.03
2022-08-03T21:47:02.797Z,98513.38
2022-08-03T21:51:07.110Z,98510.13
2022-08-03T21:55:18.619Z,98506.69
2022-08-03T21:59:23.994Z,98513.59
2022-08-03T22:03:30.976Z,98516.25
2022-08-03T22:07:54.153Z,98521.34
2022-08-03T22:11:56.980Z,98520.50
2022-08-03T22:15:59.496Z,98527.34
2022-08-03T22:20:08.416Z,98529.72
2022-08-03T22:24:15.435Z,98528.13
2022-08-03T22:28:25.000Z,98527.38
2022-08-03T22:32:29.238Z,98535.41
2022-08-03T22:36:31.504Z,98543.34
2022-08-03T22:40:34.083Z,98530.44
2022-08-03T22:44:36.806Z,98527.94
2022-08-03T22:48:41.331Z,98530.50
2022-08-03T22:52:45.651Z,98533.53
2022-08-03T22:56:48.913Z,98541.88
2022-08-03T23:00:57.807Z,98544.34
2022-08-03T23:05:11.013Z,98553.44
2022-08-03T23:09:38.701Z,98546.38
2022-08-03T23:13:41.278Z,98553.09
2022-08-03T23:17:58.588Z,98545.91
2022-08-03T23:22:04.006Z,98552.09
2022-08-03T23:26:08.333Z,98553.56
2022-08-03T23:30:20.378Z,98556.19
2022-08-03T23:34:57.932Z,98545.56
2022-08-03T23:39:03.935Z,98552.94
2022-08-03T23:43:07.004Z,98548.66
2022-08-03T23:47:09.534Z,98554.44
2022-08-03T23:51:31.930Z,98555.41
2022-08-03T23:56:08.022Z,98550.75
